FW2372 Weather Reports


time (UTC)temp
C
wind
direction
speed
KPH
gust
KPH
rain 1hr
cm
rain 24hr
cm
rain mn
cm
humidity
%
barometer
mb
20260505181531 21 287 6.4 19.3 0.00 0.00 0.00 61 1014.2
20260505180146 20 290 6.4 16.1 0.00 0.00 0.00 62 1014.1
20260505174531 20 287 8.0 22.5 0.00 0.00 0.00 63 1014.1
20260505173029 20 293 8.0 17.7 0.00 0.00 0.00 63 1014.1
20260505171602 20 296 8.0 19.3 0.00 0.00 0.00 63 1014.1
20260505170034 20 298 6.4 20.9 0.00 0.00 0.00 62 1014.1
20260505164534 21 312 6.4 17.7 0.00 0.00 0.00 63 1014.1
20260505160104 20 320 9.7 20.9 0.00 0.00 0.00 68 1014.0
20260505153030 18 304 4.8 11.3 0.00 0.00 0.00 77 1013.8
20260505151531 16 300 4.8 14.5 0.00 0.00 0.00 81 1013.8
20260505150104 15 330 3.2 12.9 0.00 0.00 0.00 78 1013.7
20260505124529 13 284 1.6 9.7 0.00 0.00 0.00 81 1012.4
20260505123027 13 304 0.0 3.2 0.00 0.00 0.00 81 1012.2
20260505111532 15 225 0.0 4.8 0.00 0.00 0.00 74 1011.7
20260505100037 15 255 4.8 19.3 0.00 0.00 0.00 79 1011.2
20260505094530 13 236 4.8 25.7 0.00 0.00 0.00 81 1011.1
20260505093031 13 136 1.6 9.7 0.00 0.00 0.00 80 1011.1
20260505090030 14 118 3.2 6.4 0.00 0.00 0.00 77 1010.9
20260505084603 15 109 1.6 8.0 0.00 0.00 0.00 76 1010.8
20260505083030 15 125 1.6 11.3 0.00 0.00 0.00 74 1010.8
20260505080031 16 83 0.0 4.8 0.00 0.00 0.00 69 1010.7
20260505074603 17 266 0.0 11.3 0.00 0.00 0.00 68 1010.6
20260505070032 18 236 1.6 8.0 0.00 0.00 0.00 62 1010.3
20260505064532 18 246 4.8 17.7 0.00 0.00 0.00 62 1010.2
20260505063029 18 230 4.8 12.9 0.00 0.00 0.00 61 1010.1
20260505061533 18 227 4.8 16.1 0.00 0.00 0.00 59 1010.1
20260505060104 19 250 3.2 11.3 0.00 0.00 0.00 57 1010.0
20260505053031 20 259 6.4 12.9 0.00 0.00 0.00 54 1009.6
20260505051534 20 266 8.0 20.9 0.00 0.00 0.00 53 1009.6
20260505041603 21 237 8.0 22.5 0.00 0.00 0.00 50 1009.1
20260505040042 21 245 6.4 17.7 0.00 0.00 0.00 50 1008.9
20260505034529 21 246 6.4 19.3 0.00 0.00 0.00 49 1008.6
20260505033030 22 243 8.0 22.5 0.00 0.00 0.00 49 1008.4
20260505030104 22 245 8.0 19.3 0.00 0.00 0.00 47 1008.1
20260505024531 23 243 8.0 19.3 0.00 0.00 0.00 46 1008.0
20260505021605 25 242 9.7 20.9 0.00 0.00 0.00 44 1007.8
20260505020031 25 255 6.4 16.1 0.00 0.00 0.00 43 1007.9
20260505014531 26 265 9.7 29.0 0.00 0.00 0.00 41 1007.8
20260505013031 27 258 8.0 24.1 0.00 0.00 0.00 39 1007.7
20260505011530 27 275 9.7 27.4 0.00 0.00 0.00 38 1007.7
20260505003107 28 289 11.3 22.5 0.00 0.00 0.00 39 1007.7
20260505001528 28 286 11.3 24.1 0.00 0.00 0.00 39 1007.8
20260504234531 28 294 11.3 27.4 0.00 0.00 0.00 40 1007.8
20260504233032 28 291 11.3 27.4 0.00 0.00 0.00 40 1007.7
20260504231531 28 288 11.3 30.6 0.00 0.00 0.00 40 1007.9
20260504230030 28 295 11.3 29.0 0.00 0.00 0.00 39 1008.0
20260504224533 29 298 9.7 22.5 0.00 0.00 0.00 38 1008.2
20260504223030 30 307 9.7 20.9 0.00 0.00 0.00 37 1008.4
20260504221603 30 304 8.0 19.3 0.00 0.00 0.00 38 1008.6
20260504213030 30 309 9.7 17.7 0.00 0.00 0.00 38 1009.0
20260504211532 30 317 8.0 19.3 0.00 0.00 0.00 37 1009.1
20260504210030 30 320 8.0 17.7 0.00 0.00 0.00 38 1009.3
20260504201529 30 298 6.4 14.5 0.00 0.00 0.00 40 1009.8
20260504200105 29 304 6.4 17.7 0.00 0.00 0.00 40 1009.9
20260504194531 28 300 6.4 16.1 0.00 0.00 0.00 40 1009.9
20260504193030 28 322 4.8 16.1 0.00 0.00 0.00 40 1010.0
20260504191529 28 312 4.8 17.7 0.00 0.00 0.00 41 1010.1
20260504190033 27 328 4.8 19.3 0.00 0.00 0.00 43 1010.2
20260504184531 26 321 8.0 19.3 0.00 0.00 0.00 45 1010.2
20260504183031 25 315 6.4 22.5 0.00 0.00 0.00 48 1010.2